Terminal Aerodrome Forecast
Issued by NWS Upton, NY

Home | Current Version | Previous Version | Text Only | Print | Product List | Glossary On
Versions: 1 2 3 4 5 6 7 8 9 10 11 12 13 14 15 16 17 18 19 20 21 22 23 24 25 26 27 28 29 30
000
FTUS41 KOKX 212324
TAFLGA
TAF
KLGA 212324Z 2200/2224 18010KT P6SM FEW050 SCT250
     FM220200 20008KT P6SM SCT040 SCT250
     FM220800 21006KT P6SM SCT015 SCT250
     FM221400 21008KT P6SM FEW025 BKN250
     FM221600 20012G18KT P6SM SCT050 BKN250
     FM222000 19019G26KT P6SM SCT050 BKN250=

USA.gov is the U.S. government's official web portal to all federal, state and local government web resources and services.